Time;durP1;ratioP1;P1;durP2;ratioP2;P2;SDS_P1;SDS_P2;PMS_P1;PMS_P2;Temp;Humidity;BMP_temperature;BMP_pressure;BME280_temperature;BME280_humidity;BME280_pressure;Samples;Min_cycle;Max_cycle;Signal;HPM_P1;HPM_P2
2021/03/27 19:58:25;;;;;;;9.33;3.90;;;8.00;50.10;;;;;;5141741;27;20538;-78
2021/03/27 20:01:21;;;;;;;7.70;3.77;;;7.80;51.20;;;;;;5135276;28;20463;-81
2021/03/27 20:04:05;;;;;;;9.60;3.50;;;7.80;52.20;;;;;;5119361;28;20414;-77
2021/03/27 20:06:37;;;;;;;8.73;5.30;;;7.80;52.80;;;;;;5118647;28;20394;-84
2021/03/27 20:09:12;;;;;;;11.90;5.23;;;7.80;52.80;;;;;;5117757;28;20501;-82
2021/03/27 20:11:41;;;;;;;7.87;4.37;;;7.70;52.70;;;;;;5117839;28;20433;-80
2021/03/27 20:14:21;;;;;;;7.67;4.00;;;7.70;52.60;;;;;;5097993;28;20425;-79
2021/03/27 20:17:10;;;;;;;8.13;5.90;;;7.70;52.50;;;;;;5109023;28;20413;-83
2021/03/27 20:19:39;;;;;;;9.50;4.13;;;7.70;52.50;;;;;;5093734;28;20413;-80
2021/03/27 20:22:39;;;;;;;12.33;3.93;;;7.70;52.80;;;;;;5122712;28;20425;-81
2021/03/27 20:25:36;;;;;;;7.47;3.93;;;7.70;52.20;;;;;;5106326;28;20467;-82
2021/03/27 20:28:11;;;;;;;11.27;4.73;;;7.60;52.20;;;;;;5117064;28;20449;-80
2021/03/27 20:30:50;;;;;;;9.13;3.60;;;7.60;52.20;;;;;;5130694;27;20428;-79
2021/03/27 20:33:30;;;;;;;9.57;3.50;;;7.60;52.10;;;;;;5137805;27;20405;-78
2021/03/27 20:36:16;;;;;;;10.77;4.70;;;7.60;52.30;;;;;;5134879;27;20412;-78
2021/03/27 20:39:09;;;;;;;8.80;3.77;;;7.50;52.50;;;;;;5138791;28;20794;-80
2021/03/27 20:42:08;;;;;;;11.30;4.37;;;7.50;52.80;;;;;;5126784;28;20456;-80
2021/03/27 20:44:43;;;;;;;9.73;4.90;;;7.50;52.80;;;;;;5120985;28;20493;-81
2021/03/27 20:47:26;;;;;;;12.87;4.90;;;7.60;52.90;;;;;;5137994;27;20824;-80
2021/03/27 20:50:16;;;;;;;9.63;5.47;;;7.70;52.90;;;;;;5136344;27;20455;-79
2021/03/27 20:52:58;;;;;;;11.20;5.60;;;7.80;53.00;;;;;;5119438;27;20425;-81
2021/03/27 20:55:40;;;;;;;14.13;5.47;;;7.90;53.20;;;;;;5127942;27;21004;-80
2021/03/27 20:58:41;;;;;;;13.67;4.57;;;7.90;53.80;;;;;;5103484;27;20429;-80
2021/03/27 21:01:20;;;;;;;10.00;3.40;;;8.00;54.20;;;;;;5136849;27;20781;-79
2021/03/27 21:04:27;;;;;;;14.50;4.63;;;8.00;54.50;;;;;;5103908;28;20452;-78
2021/03/27 21:06:58;;;;;;;8.60;3.60;;;8.10;54.90;;;;;;5131017;27;20460;-78
2021/03/27 21:09:24;;;;;;;5.93;3.03;;;8.10;55.00;;;;;;5123472;28;20526;-81
2021/03/27 21:11:53;;;;;;;7.40;3.50;;;8.10;55.20;;;;;;5109442;28;20438;-81
2021/03/27 21:14:38;;;;;;;9.17;4.00;;;8.10;55.40;;;;;;5126138;28;20171;-81
2021/03/27 21:17:10;;;;;;;8.57;3.00;;;8.10;55.70;;;;;;5113813;28;20494;-81
2021/03/27 21:20:13;;;;;;;7.73;3.10;;;8.20;55.80;;;;;;5104062;28;20414;-82
2021/03/27 21:22:59;;;;;;;8.17;3.60;;;8.20;55.70;;;;;;5132268;28;20493;-81
2021/03/27 21:26:10;;;;;;;8.10;3.17;;;8.20;55.70;;;;;;5126435;28;20412;-82
2021/03/27 21:28:57;;;;;;;6.60;3.43;;;8.20;55.80;;;;;;5102223;28;20474;-81
2021/03/27 21:31:38;;;;;;;13.80;3.90;;;8.20;55.90;;;;;;5126731;28;20429;-80
2021/03/27 21:34:23;;;;;;;9.97;4.00;;;8.20;56.10;;;;;;5097713;28;20480;-83
2021/03/27 21:37:27;;;;;;;6.67;4.30;;;8.20;56.20;;;;;;5132792;28;20438;-83
2021/03/27 21:40:05;;;;;;;11.83;4.60;;;8.10;56.30;;;;;;5107145;28;20439;-82
2021/03/27 21:42:38;;;;;;;8.73;3.93;;;8.10;56.30;;;;;;5108503;28;20405;-84
2021/03/27 21:45:30;;;;;;;9.97;3.43;;;8.00;56.50;;;;;;5122794;28;20391;-81
2021/03/27 21:48:15;;;;;;;5.03;3.13;;;8.00;56.80;;;;;;5101818;28;20455;-79
2021/03/27 21:50:46;;;;;;;12.00;3.87;;;7.90;56.80;;;;;;5114689;28;20445;-81
2021/03/27 21:53:27;;;;;;;6.00;3.27;;;7.90;57.00;;;;;;5112750;28;20445;-80
2021/03/27 21:56:08;;;;;;;13.53;4.17;;;7.80;57.20;;;;;;5117258;28;20446;-83
2021/03/27 21:58:57;;;;;;;13.07;4.63;;;7.70;57.40;;;;;;5112822;28;20857;-80
2021/03/27 22:02:01;;;;;;;5.90;3.03;;;7.70;57.70;;;;;;5125495;27;20452;-83
2021/03/27 22:04:51;;;;;;;10.70;3.43;;;7.60;57.90;;;;;;5105562;28;20409;-82
2021/03/27 22:08:01;;;;;;;11.90;3.47;;;7.50;58.20;;;;;;5127842;28;20870;-80
2021/03/27 22:10:33;;;;;;;5.20;2.80;;;7.50;58.40;;;;;;5103191;28;20493;-80
2021/03/27 22:13:26;;;;;;;6.13;2.70;;;7.40;58.70;;;;;;5108708;28;20417;-83
2021/03/27 22:16:31;;;;;;;8.60;3.23;;;7.40;58.80;;;;;;5107697;28;20486;-81
2021/03/27 22:19:24;;;;;;;7.77;3.30;;;7.30;59.00;;;;;;5104389;28;20415;-81
2021/03/27 22:21:57;;;;;;;5.87;2.70;;;7.30;59.20;;;;;;5107060;28;20442;-80
2021/03/27 22:24:39;;;;;;;11.90;3.13;;;7.30;59.30;;;;;;5104437;28;20466;-79
2021/03/27 22:27:30;;;;;;;9.00;3.63;;;7.20;59.40;;;;;;5094287;28;20451;-80
2021/03/27 22:30:07;;;;;;;7.07;3.03;;;7.20;59.50;;;;;;5087161;28;20516;-78
2021/03/27 22:32:45;;;;;;;10.53;3.03;;;7.20;59.50;;;;;;5098372;28;20421;-78
2021/03/27 22:35:28;;;;;;;11.63;4.77;;;7.10;59.40;;;;;;5095737;28;20419;-81
2021/03/27 22:38:23;;;;;;;6.83;2.60;;;7.10;59.40;;;;;;5098973;28;20417;-85
2021/03/27 22:40:56;;;;;;;8.43;3.00;;;7.10;59.30;;;;;;5104175;28;20438;-82
2021/03/27 22:43:44;;;;;;;8.70;2.43;;;7.10;59.30;;;;;;5105357;28;20446;-83
2021/03/27 22:46:14;;;;;;;11.43;2.90;;;7.10;59.30;;;;;;5097419;28;20458;-78
2021/03/27 22:48:43;;;;;;;8.50;2.73;;;7.00;59.20;;;;;;5086459;28;20410;-80
2021/03/27 22:51:23;;;;;;;5.93;2.83;;;7.00;59.20;;;;;;5080156;28;20466;-80
2021/03/27 22:54:00;;;;;;;7.13;2.70;;;7.00;59.20;;;;;;5120096;28;20480;-79
2021/03/27 22:56:42;;;;;;;10.53;2.50;;;7.00;59.20;;;;;;5115176;28;20524;-79
2021/03/27 22:59:21;;;;;;;6.53;3.10;;;7.00;59.10;;;;;;5101903;28;20418;-80
2021/03/27 23:02:24;;;;;;;13.00;4.20;;;7.00;59.00;;;;;;5081333;28;20443;-79
2021/03/27 23:05:07;;;;;;;13.40;3.33;;;6.90;58.90;;;;;;5078573;28;20399;-79
2021/03/27 23:07:47;;;;;;;6.13;3.30;;;6.90;58.80;;;;;;5087022;28;20457;-78
2021/03/27 23:10:24;;;;;;;9.60;3.50;;;6.90;58.70;;;;;;5093787;28;20438;-80
2021/03/27 23:13:03;;;;;;;10.00;2.83;;;6.90;58.40;;;;;;5087349;28;20418;-78
2021/03/27 23:16:08;;;;;;;6.87;3.70;;;7.00;58.50;;;;;;5106568;28;20418;-76
2021/03/27 23:18:44;;;;;;;13.70;2.60;;;7.00;58.30;;;;;;5087559;28;20423;-77
2021/03/27 23:21:10;;;;;;;7.93;2.87;;;7.00;58.10;;;;;;5076430;28;20447;-79
2021/03/27 23:23:38;;;;;;;5.13;2.10;;;7.00;58.00;;;;;;5076388;28;20464;-80
2021/03/27 23:26:44;;;;;;;11.10;3.07;;;7.00;58.00;;;;;;5077915;28;20223;-79
2021/03/27 23:29:43;;;;;;;10.00;3.10;;;7.00;57.90;;;;;;5098624;28;20418;-79
2021/03/27 23:32:12;;;;;;;6.83;2.63;;;6.90;57.90;;;;;;5097823;28;20406;-79
2021/03/27 23:35:01;;;;;;;6.67;2.33;;;7.00;57.90;;;;;;5095193;28;20426;-77
2021/03/27 23:37:32;;;;;;;9.87;2.93;;;6.90;57.90;;;;;;5078718;28;20481;-79
2021/03/27 23:40:17;;;;;;;7.93;2.27;;;6.90;58.00;;;;;;5080359;28;20430;-79
2021/03/27 23:43:06;;;;;;;13.47;3.20;;;6.90;58.10;;;;;;5082141;28;20783;-80
2021/03/27 23:46:03;;;;;;;6.90;3.10;;;6.80;58.20;;;;;;5091854;28;20410;-80
2021/03/27 23:48:43;;;;;;;7.20;2.80;;;6.80;58.40;;;;;;5098934;28;20419;-80
2021/03/27 23:51:30;;;;;;;12.03;3.13;;;6.80;58.60;;;;;;5098808;22;20473;-78
2021/03/27 23:54:10;;;;;;;8.53;2.40;;;6.80;58.80;;;;;;5036303;28;20977;-78
2021/03/27 23:56:49;;;;;;;8.70;2.63;;;6.70;58.90;;;;;;5035967;28;20448;-78
2021/03/27 23:59:26;;;;;;;10.00;2.40;;;6.70;59.10;;;;;;5035082;28;20411;-78
